createdAt,value
2019-01-29T00:00:01.737Z,87.10
2019-01-29T00:01:01.737Z,87.01
2019-01-29T00:02:01.744Z,86.54
2019-01-29T00:03:01.741Z,86.54
2019-01-29T00:04:01.742Z,86.25
2019-01-29T00:05:01.744Z,86.44
2019-01-29T00:06:01.743Z,85.97
2019-01-29T00:07:01.747Z,86.25
2019-01-29T00:08:01.748Z,86.54
2019-01-29T00:09:01.750Z,86.54
2019-01-29T00:10:01.762Z,86.25
2019-01-29T00:11:01.756Z,86.44
2019-01-29T00:12:01.754Z,86.63
2019-01-29T00:13:01.753Z,86.63
2019-01-29T00:14:01.753Z,87.01
2019-01-29T00:15:01.760Z,86.91
2019-01-29T00:16:01.757Z,89.37
2019-01-29T00:17:01.757Z,90.88
2019-01-29T00:18:01.765Z,91.53
2019-01-29T00:19:01.761Z,91.63
2019-01-29T00:20:01.761Z,91.44
2019-01-29T00:21:01.763Z,91.44
2019-01-29T00:22:01.764Z,90.59
2019-01-29T00:23:01.764Z,90.12
2019-01-29T00:24:01.767Z,89.74
2019-01-29T00:25:01.778Z,89.18
2019-01-29T00:26:01.768Z,90.12
2019-01-29T00:27:01.772Z,92.00
2019-01-29T00:28:01.770Z,92.66
2019-01-29T00:29:01.772Z,92.95
2019-01-29T00:30:01.774Z,94.27
2019-01-29T00:31:01.775Z,93.80
2019-01-29T00:32:01.779Z,92.29
2019-01-29T00:33:01.777Z,91.44
2019-01-29T00:34:01.778Z,91.72
2019-01-29T00:35:01.784Z,91.63
2019-01-29T00:36:01.781Z,91.25
2019-01-29T00:37:01.787Z,90.78
2019-01-29T00:38:01.784Z,90.50
2019-01-29T00:39:01.786Z,90.12
2019-01-29T00:40:01.792Z,90.50
2019-01-29T00:41:01.789Z,89.93
2019-01-29T00:42:01.791Z,89.93
2019-01-29T00:43:01.792Z,90.41
2019-01-29T00:44:01.789Z,90.41
2019-01-29T00:45:01.791Z,90.22
2019-01-29T00:46:01.796Z,90.22
2019-01-29T00:47:01.798Z,89.93
2019-01-29T00:48:01.798Z,90.12
2019-01-29T00:49:01.796Z,89.56
2019-01-29T00:50:01.798Z,89.37
2019-01-29T00:51:01.806Z,89.93
2019-01-29T00:52:01.802Z,90.69
2019-01-29T00:53:01.802Z,90.31
2019-01-29T00:54:01.804Z,90.41
2019-01-29T00:55:01.828Z,90.12
2019-01-29T00:56:01.819Z,90.12
2019-01-29T00:57:01.808Z,90.22
2019-01-29T00:58:01.810Z,90.03
2019-01-29T00:59:01.812Z,89.74
2019-01-29T01:00:01.811Z,89.18
2019-01-29T01:01:01.811Z,89.46
2019-01-29T01:02:01.811Z,89.46
2019-01-29T01:03:01.817Z,89.18
2019-01-29T01:04:01.817Z,88.71
2019-01-29T01:05:01.819Z,88.80
2019-01-29T01:06:01.817Z,88.99
2019-01-29T01:07:01.821Z,88.71
2019-01-29T01:08:01.820Z,88.14
2019-01-29T01:09:01.823Z,86.91
2019-01-29T01:10:01.826Z,86.72
2019-01-29T01:11:01.825Z,86.63
2019-01-29T01:12:01.826Z,87.38
2019-01-29T01:13:01.827Z,87.38
2019-01-29T01:14:01.827Z,87.29
2019-01-29T01:15:01.829Z,86.82
2019-01-29T01:16:01.828Z,86.63
2019-01-29T01:17:01.829Z,86.63
2019-01-29T01:18:01.832Z,86.63
2019-01-29T01:19:01.831Z,87.19
2019-01-29T01:20:01.833Z,88.71
2019-01-29T01:21:01.834Z,88.99
2019-01-29T01:22:01.836Z,88.23
2019-01-29T01:23:01.837Z,87.76
2019-01-29T01:24:01.838Z,87.86
2019-01-29T01:25:01.844Z,88.80
2019-01-29T01:26:01.840Z,89.84
2019-01-29T01:27:01.843Z,92.38
2019-01-29T01:28:01.843Z,95.02
2019-01-29T01:29:01.845Z,95.68
2019-01-29T01:30:01.848Z,95.78
2019-01-29T01:31:01.845Z,95.59
2019-01-29T01:32:01.845Z,95.02
2019-01-29T01:33:01.848Z,94.74
2019-01-29T01:34:01.850Z,93.51
2019-01-29T01:35:01.851Z,93.32
2019-01-29T01:36:01.852Z,92.95
2019-01-29T01:37:01.853Z,92.85
2019-01-29T01:38:01.852Z,92.66
2019-01-29T01:39:01.853Z,92.57
2019-01-29T01:40:01.862Z,92.29
2019-01-29T01:41:01.854Z,93.04
2019-01-29T01:42:01.857Z,93.32
2019-01-29T01:43:01.857Z,93.13
2019-01-29T01:44:01.860Z,92.29
2019-01-29T01:45:01.859Z,92.29
2019-01-29T01:46:01.858Z,91.91
2019-01-29T01:47:01.862Z,92.47
2019-01-29T01:48:01.863Z,92.57
2019-01-29T01:49:01.864Z,92.47
2019-01-29T01:50:01.867Z,92.47
2019-01-29T01:51:01.865Z,92.76
2019-01-29T01:52:01.864Z,92.38
2019-01-29T01:53:01.866Z,92.47
2019-01-29T01:54:01.869Z,92.66
2019-01-29T01:55:01.889Z,92.47
2019-01-29T01:56:01.871Z,92.19
2019-01-29T01:57:01.868Z,92.10
2019-01-29T01:58:01.870Z,92.29
2019-01-29T01:59:01.874Z,91.91
2019-01-29T02:00:01.874Z,91.35
2019-01-29T02:01:01.874Z,91.35
2019-01-29T02:02:01.876Z,90.78
2019-01-29T02:03:01.874Z,89.93
2019-01-29T02:04:01.875Z,89.46
2019-01-29T02:05:01.875Z,89.74
2019-01-29T02:06:01.877Z,89.37
2019-01-29T02:07:01.878Z,89.37
2019-01-29T02:08:01.879Z,88.71
2019-01-29T02:09:01.881Z,89.27
2019-01-29T02:10:01.882Z,89.08
2019-01-29T02:11:01.886Z,89.74
2019-01-29T02:12:01.882Z,90.12
2019-01-29T02:13:01.896Z,89.37
2019-01-29T02:14:01.890Z,88.42
2019-01-29T02:15:01.886Z,88.23
2019-01-29T02:16:01.887Z,88.23
2019-01-29T02:17:01.893Z,88.42
2019-01-29T02:18:01.891Z,88.14
2019-01-29T02:19:01.889Z,88.71
2019-01-29T02:20:01.892Z,89.84
2019-01-29T02:21:01.892Z,90.97
2019-01-29T02:22:01.896Z,91.16
2019-01-29T02:23:07.805Z,89.37
2019-01-29T02:24:01.893Z,87.86
2019-01-29T02:25:01.898Z,86.44
2019-01-29T02:26:01.896Z,86.07
2019-01-29T02:27:01.897Z,85.31
2019-01-29T02:28:01.897Z,85.31
2019-01-29T02:29:01.902Z,85.03
2019-01-29T02:30:01.900Z,85.03
2019-01-29T02:31:01.900Z,85.22
2019-01-29T02:32:01.901Z,85.03
2019-01-29T02:33:01.906Z,85.41
2019-01-29T02:34:01.905Z,85.03
2019-01-29T02:35:01.905Z,85.13
2019-01-29T02:36:01.906Z,85.41
2019-01-29T02:37:01.904Z,85.22
2019-01-29T02:38:01.911Z,85.60
2019-01-29T02:39:01.959Z,85.88
2019-01-29T02:40:01.977Z,85.88
2019-01-29T02:41:01.920Z,86.63
2019-01-29T02:42:01.909Z,87.01
2019-01-29T02:43:01.921Z,87.95
2019-01-29T02:44:01.909Z,88.71
2019-01-29T02:45:01.916Z,88.52
2019-01-29T02:46:01.911Z,88.80
2019-01-29T02:47:01.912Z,88.99
2019-01-29T02:48:01.916Z,88.80
2019-01-29T02:49:01.931Z,88.89
2019-01-29T02:50:01.925Z,89.27
2019-01-29T02:51:01.921Z,89.46
2019-01-29T02:52:01.917Z,89.93
2019-01-29T02:53:01.919Z,89.84
2019-01-29T02:54:01.919Z,90.03
2019-01-29T02:55:01.922Z,90.41
2019-01-29T02:56:01.922Z,90.22
2019-01-29T02:57:01.923Z,90.12
2019-01-29T02:58:01.924Z,89.93
2019-01-29T02:59:01.928Z,90.03
2019-01-29T03:00:01.927Z,89.74
2019-01-29T03:01:01.927Z,89.27
2019-01-29T03:02:01.925Z,88.61
2019-01-29T03:03:01.928Z,89.27
2019-01-29T03:04:01.926Z,90.12
2019-01-29T03:05:01.927Z,89.93
2019-01-29T03:06:01.931Z,90.03
2019-01-29T03:07:01.930Z,90.12
2019-01-29T03:08:01.975Z,89.27
2019-01-29T03:09:01.931Z,88.99
2019-01-29T03:10:01.935Z,89.13
2019-01-29T03:11:01.935Z,89.46
2019-01-29T03:12:01.937Z,89.32
2019-01-29T03:13:01.937Z,89.04
2019-01-29T03:14:01.935Z,88.85
2019-01-29T03:15:01.997Z,88.19
2019-01-29T03:16:01.940Z,88.85
2019-01-29T03:17:01.940Z,88.95
2019-01-29T03:18:01.941Z,89.04
2019-01-29T03:19:01.943Z,88.57
2019-01-29T03:20:01.941Z,88.66
2019-01-29T03:21:01.945Z,88.76
2019-01-29T03:22:01.952Z,89.32
2019-01-29T03:23:01.942Z,88.76
2019-01-29T03:24:01.944Z,88.76
2019-01-29T03:25:01.950Z,89.04
2019-01-29T03:26:01.947Z,89.32
2019-01-29T03:27:01.947Z,89.32
2019-01-29T03:28:01.944Z,88.85
2019-01-29T03:29:01.954Z,88.95
2019-01-29T03:30:02.027Z,88.57
2019-01-29T03:31:01.957Z,89.51
2019-01-29T03:32:01.953Z,88.85
2019-01-29T03:33:02.070Z,88.47
2019-01-29T03:34:01.948Z,88.47
2019-01-29T03:35:02.397Z,88.00
2019-01-29T03:36:01.949Z,87.53
2019-01-29T03:37:01.952Z,87.62
2019-01-29T03:38:01.956Z,87.53
2019-01-29T03:39:01.952Z,87.91
2019-01-29T03:40:01.956Z,88.04
2019-01-29T03:41:01.977Z,88.57
2019-01-29T03:42:01.955Z,88.19
2019-01-29T03:43:02.025Z,88.28
2019-01-29T03:44:01.954Z,88.38
2019-01-29T03:45:01.965Z,88.28
2019-01-29T03:46:01.957Z,88.28
2019-01-29T03:47:01.961Z,88.00
2019-01-29T03:48:01.959Z,88.28
2019-01-29T03:49:01.961Z,88.66
2019-01-29T03:50:01.958Z,88.85
2019-01-29T03:51:01.961Z,89.04
2019-01-29T03:52:01.960Z,88.38
2019-01-29T03:53:01.959Z,87.25
2019-01-29T03:54:01.960Z,86.77
2019-01-29T03:55:01.967Z,86.49
2019-01-29T03:56:01.970Z,86.77
2019-01-29T03:57:01.964Z,86.96
2019-01-29T03:58:01.961Z,87.34
2019-01-29T03:59:01.968Z,87.44
2019-01-29T04:00:01.964Z,87.72
2019-01-29T04:01:01.968Z,87.44
2019-01-29T04:02:01.968Z,88.00
2019-01-29T04:03:01.965Z,89.04
2019-01-29T04:04:01.977Z,89.23
2019-01-29T04:05:01.967Z,90.26
2019-01-29T04:06:01.965Z,90.08
2019-01-29T04:07:01.970Z,90.45
2019-01-29T04:08:01.968Z,91.20
2019-01-29T04:09:01.976Z,91.67
2019-01-29T04:10:01.969Z,91.67
2019-01-29T04:11:01.969Z,91.11
2019-01-29T04:12:01.977Z,91.02
2019-01-29T04:13:01.971Z,91.30
2019-01-29T04:14:01.971Z,92.24
2019-01-29T04:15:01.970Z,93.94
2019-01-29T04:16:01.974Z,95.35
2019-01-29T04:17:01.968Z,96.20
2019-01-29T04:18:01.986Z,96.77
2019-01-29T04:19:01.973Z,97.24
2019-01-29T04:20:01.972Z,98.36
2019-01-29T04:21:01.970Z,98.55
2019-01-29T04:22:01.971Z,99.31
2019-01-29T04:23:01.975Z,99.87
2019-01-29T04:24:01.969Z,99.99
2019-01-29T04:25:01.976Z,99.99
2019-01-29T04:26:01.970Z,99.99
2019-01-29T04:27:01.968Z,99.99
2019-01-29T04:28:02.036Z,99.78
2019-01-29T04:29:01.969Z,98.93
2019-01-29T04:30:01.967Z,98.65
2019-01-29T04:31:01.969Z,99.12
2019-01-29T04:32:01.967Z,99.12
2019-01-29T04:33:01.969Z,98.93
2019-01-29T04:34:01.970Z,98.27
2019-01-29T04:35:01.968Z,98.46
2019-01-29T04:36:01.964Z,98.36
2019-01-29T04:37:01.967Z,97.14
2019-01-29T04:38:01.967Z,97.33
2019-01-29T04:39:01.965Z,96.67
2019-01-29T04:40:01.963Z,96.67
2019-01-29T04:41:01.963Z,96.77
2019-01-29T04:42:01.965Z,97.14
2019-01-29T04:43:01.965Z,96.86
2019-01-29T04:44:02.031Z,96.86
2019-01-29T04:45:02.012Z,96.95
2019-01-29T04:46:01.966Z,97.24
2019-01-29T04:47:01.982Z,96.86
2019-01-29T04:48:01.964Z,97.24
2019-01-29T04:49:01.962Z,97.14
2019-01-29T04:50:01.962Z,97.14
2019-01-29T04:51:01.963Z,97.24
2019-01-29T04:52:01.963Z,97.14
2019-01-29T04:53:01.960Z,97.05
2019-01-29T04:54:01.967Z,97.05
2019-01-29T04:55:01.967Z,97.14
2019-01-29T04:56:01.964Z,97.42
2019-01-29T04:57:01.969Z,97.24
2019-01-29T04:58:01.962Z,96.67
2019-01-29T04:59:01.963Z,97.05
2019-01-29T05:00:01.960Z,97.52
2019-01-29T05:01:01.960Z,97.24
2019-01-29T05:02:01.963Z,97.52
2019-01-29T05:03:01.965Z,97.61
2019-01-29T05:04:01.963Z,97.33
2019-01-29T05:05:01.963Z,97.52
2019-01-29T05:06:01.963Z,97.52
2019-01-29T05:07:01.978Z,97.52
2019-01-29T05:08:01.961Z,97.05
2019-01-29T05:09:01.962Z,97.14
2019-01-29T05:10:01.967Z,97.42
2019-01-29T05:11:01.964Z,97.33
2019-01-29T05:12:01.964Z,97.61
2019-01-29T05:13:01.962Z,97.33
2019-01-29T05:14:01.963Z,97.24
2019-01-29T05:15:01.965Z,97.33
2019-01-29T05:16:01.963Z,97.14
2019-01-29T05:17:01.964Z,97.33
2019-01-29T05:18:01.967Z,97.42
2019-01-29T05:19:01.964Z,97.24
2019-01-29T05:20:01.963Z,97.05
2019-01-29T05:21:01.964Z,97.05
2019-01-29T05:22:01.967Z,96.48
2019-01-29T05:23:01.972Z,96.58
2019-01-29T05:24:07.049Z,96.01
2019-01-29T05:25:01.975Z,95.45
2019-01-29T05:26:01.969Z,95.54
2019-01-29T05:27:01.968Z,95.73
2019-01-29T05:28:01.964Z,94.88
2019-01-29T05:29:01.966Z,94.60
2019-01-29T05:30:01.967Z,94.50
2019-01-29T05:31:01.966Z,94.50
2019-01-29T05:32:01.966Z,94.88
2019-01-29T05:33:01.971Z,93.75
2019-01-29T05:34:01.969Z,94.03
2019-01-29T05:35:01.972Z,93.28
2019-01-29T05:36:01.971Z,92.99
2019-01-29T05:37:01.973Z,92.99
2019-01-29T05:38:04.073Z,92.52
2019-01-29T05:39:01.970Z,92.14
2019-01-29T05:40:02.003Z,92.24
2019-01-29T05:41:01.971Z,92.05
2019-01-29T05:42:01.973Z,92.24
2019-01-29T05:43:01.973Z,92.14
2019-01-29T05:44:01.970Z,92.33
2019-01-29T05:45:01.972Z,92.62
2019-01-29T05:46:01.970Z,92.90
2019-01-29T05:47:01.971Z,93.09
2019-01-29T05:48:01.992Z,93.84
2019-01-29T05:49:01.973Z,93.75
2019-01-29T05:50:02.005Z,94.03
2019-01-29T05:51:01.971Z,93.94
2019-01-29T05:52:01.973Z,93.84
2019-01-29T05:53:01.977Z,92.90
2019-01-29T05:54:01.975Z,92.43
2019-01-29T05:55:01.977Z,92.80
2019-01-29T05:56:01.975Z,92.33
2019-01-29T05:57:01.980Z,92.62
2019-01-29T05:58:02.101Z,92.14
2019-01-29T05:59:01.973Z,92.43
2019-01-29T06:00:01.978Z,92.05
2019-01-29T06:01:01.973Z,92.62
2019-01-29T06:02:01.977Z,92.24
2019-01-29T06:03:01.978Z,92.43
2019-01-29T06:04:01.980Z,92.05
2019-01-29T06:05:01.980Z,91.86
2019-01-29T06:06:01.974Z,91.67
2019-01-29T06:07:01.977Z,91.49
2019-01-29T06:08:01.974Z,91.77
2019-01-29T06:09:01.974Z,92.05
2019-01-29T06:10:01.975Z,91.58
2019-01-29T06:11:01.978Z,91.30
2019-01-29T06:12:01.977Z,91.30
2019-01-29T06:13:01.980Z,91.20
2019-01-29T06:14:01.978Z,90.83
2019-01-29T06:15:01.975Z,90.55
2019-01-29T06:16:01.980Z,90.45
2019-01-29T06:17:01.977Z,90.73
2019-01-29T06:18:01.976Z,90.64
2019-01-29T06:19:01.980Z,90.92
2019-01-29T06:20:01.976Z,91.30
2019-01-29T06:21:01.976Z,90.26
2019-01-29T06:22:01.975Z,90.08
2019-01-29T06:23:01.990Z,90.26
2019-01-29T06:24:01.975Z,89.32
2019-01-29T06:25:02.051Z,88.57
2019-01-29T06:26:01.975Z,88.85
2019-01-29T06:27:01.977Z,88.95
2019-01-29T06:28:01.976Z,88.38
2019-01-29T06:29:01.974Z,87.72
2019-01-29T06:30:01.979Z,87.53
2019-01-29T06:31:01.977Z,86.87
2019-01-29T06:32:01.975Z,86.49
2019-01-29T06:33:01.978Z,86.87
2019-01-29T06:34:01.983Z,87.25
2019-01-29T06:35:01.983Z,86.96
2019-01-29T06:36:01.978Z,86.87
2019-01-29T06:37:01.979Z,87.34
2019-01-29T06:38:01.975Z,86.87
2019-01-29T06:39:01.976Z,86.59
2019-01-29T06:40:01.977Z,86.49
2019-01-29T06:41:01.975Z,86.40
2019-01-29T06:42:01.977Z,86.59
2019-01-29T06:43:01.977Z,86.40
2019-01-29T06:44:01.977Z,86.49
2019-01-29T06:45:01.977Z,86.87
2019-01-29T06:46:01.976Z,86.59
2019-01-29T06:47:01.977Z,86.11
2019-01-29T06:48:01.981Z,86.30
2019-01-29T06:49:01.985Z,85.64
2019-01-29T06:50:01.987Z,85.36
2019-01-29T06:51:01.977Z,84.89
2019-01-29T06:52:01.979Z,84.70
2019-01-29T06:53:01.988Z,84.99
2019-01-29T06:54:01.978Z,85.17
2019-01-29T06:55:01.980Z,84.33
2019-01-29T06:56:01.978Z,84.33
2019-01-29T06:57:01.977Z,84.52
2019-01-29T06:58:01.983Z,84.89
2019-01-29T06:59:01.978Z,84.61
2019-01-29T07:00:01.994Z,84.42
2019-01-29T07:01:01.980Z,83.58
2019-01-29T07:02:01.977Z,83.86
2019-01-29T07:03:01.979Z,83.76
2019-01-29T07:04:01.977Z,83.29
2019-01-29T07:05:01.986Z,82.73
2019-01-29T07:06:01.985Z,82.63
2019-01-29T07:07:01.980Z,82.07
2019-01-29T07:08:01.977Z,81.88
2019-01-29T07:09:01.981Z,81.69
2019-01-29T07:10:01.979Z,81.78
2019-01-29T07:11:01.982Z,81.59
2019-01-29T07:12:01.979Z,81.31
2019-01-29T07:13:01.978Z,81.88
2019-01-29T07:14:01.979Z,81.59
2019-01-29T07:15:01.982Z,82.16
2019-01-29T07:16:01.980Z,82.44
2019-01-29T07:17:01.977Z,82.73
2019-01-29T07:18:01.981Z,82.82
2019-01-29T07:19:01.978Z,82.73
2019-01-29T07:20:01.980Z,83.10
2019-01-29T07:21:01.977Z,82.92
2019-01-29T07:22:01.981Z,82.73
2019-01-29T07:23:01.982Z,83.01
2019-01-29T07:24:01.983Z,82.54
2019-01-29T07:25:01.978Z,82.82
2019-01-29T07:26:01.989Z,82.73
2019-01-29T07:27:01.983Z,83.01
2019-01-29T07:28:01.978Z,83.39
2019-01-29T07:29:01.983Z,84.33
2019-01-29T07:30:01.981Z,84.52
2019-01-29T07:31:01.978Z,84.70
2019-01-29T07:32:01.979Z,84.70
2019-01-29T07:33:01.988Z,84.14
2019-01-29T07:34:01.982Z,83.86
2019-01-29T07:35:01.984Z,83.39
2019-01-29T07:36:01.981Z,83.20
2019-01-29T07:37:01.979Z,83.10
2019-01-29T07:38:01.983Z,82.92
2019-01-29T07:39:01.981Z,82.07
2019-01-29T07:40:01.978Z,81.97
2019-01-29T07:41:01.980Z,81.78
2019-01-29T07:42:01.980Z,81.41
2019-01-29T07:43:01.984Z,80.84
2019-01-29T07:44:01.983Z,80.84
2019-01-29T07:45:01.981Z,81.03
2019-01-29T07:46:01.986Z,81.22
2019-01-29T07:47:02.036Z,80.18
2019-01-29T07:48:01.985Z,79.90
2019-01-29T07:49:01.985Z,79.61
2019-01-29T07:50:02.010Z,79.71
2019-01-29T07:51:01.982Z,79.14
2019-01-29T07:52:01.985Z,79.05
2019-01-29T07:53:01.984Z,79.90
2019-01-29T07:54:01.983Z,79.14
2019-01-29T07:55:01.991Z,79.71
2019-01-29T07:56:01.983Z,79.80
2019-01-29T07:57:01.982Z,79.71
2019-01-29T07:58:01.986Z,79.52
2019-01-29T07:59:01.983Z,79.24
2019-01-29T08:00:01.986Z,79.14
2019-01-29T08:01:01.984Z,79.90
2019-01-29T08:02:01.983Z,80.84
2019-01-29T08:03:01.983Z,81.50
2019-01-29T08:04:01.982Z,81.78
2019-01-29T08:05:01.984Z,81.59
2019-01-29T08:06:01.985Z,81.78
2019-01-29T08:07:01.989Z,81.03
2019-01-29T08:08:01.984Z,81.22
2019-01-29T08:09:01.987Z,81.22
2019-01-29T08:10:01.984Z,81.59
2019-01-29T08:11:01.989Z,82.44
2019-01-29T08:12:01.992Z,83.20
2019-01-29T08:13:01.987Z,83.76
2019-01-29T08:14:01.984Z,83.20
2019-01-29T08:15:01.984Z,82.07
2019-01-29T08:16:01.987Z,81.59
2019-01-29T08:17:01.987Z,81.59
2019-01-29T08:18:01.986Z,81.12
2019-01-29T08:19:01.983Z,81.69
2019-01-29T08:20:01.987Z,82.54
2019-01-29T08:21:01.982Z,82.16
2019-01-29T08:22:01.986Z,82.35
2019-01-29T08:23:01.983Z,82.16
2019-01-29T08:24:01.984Z,81.50
2019-01-29T08:25:02.349Z,81.41
2019-01-29T08:26:01.982Z,81.03
2019-01-29T08:27:01.983Z,80.65
2019-01-29T08:28:01.981Z,80.27
2019-01-29T08:29:01.984Z,79.52
2019-01-29T08:30:01.992Z,78.96
2019-01-29T08:31:01.982Z,79.05
2019-01-29T08:32:01.981Z,78.30
2019-01-29T08:33:01.985Z,78.39
2019-01-29T08:34:01.982Z,77.64
2019-01-29T08:35:01.984Z,77.58
2019-01-29T08:36:01.985Z,77.01
2019-01-29T08:37:01.983Z,76.45
2019-01-29T08:38:01.983Z,75.60
2019-01-29T08:39:01.981Z,75.42
2019-01-29T08:40:01.987Z,74.19
2019-01-29T08:41:01.982Z,72.77
2019-01-29T08:42:01.982Z,72.49
2019-01-29T08:43:01.984Z,71.55
2019-01-29T08:44:01.983Z,70.70
2019-01-29T08:45:01.996Z,69.85
2019-01-29T08:46:01.986Z,69.67
2019-01-29T08:47:01.988Z,69.57
2019-01-29T08:48:01.992Z,70.14
2019-01-29T08:49:01.987Z,69.95
2019-01-29T08:50:01.988Z,70.04
2019-01-29T08:51:03.718Z,69.95
2019-01-29T08:52:01.995Z,69.85
2019-01-29T08:53:01.999Z,71.73
2019-01-29T08:54:01.992Z,73.81
2019-01-29T08:55:10.265Z,74.76
2019-01-29T08:56:01.995Z,74.66
2019-01-29T08:57:01.995Z,75.13
2019-01-29T08:58:02.001Z,74.76
2019-01-29T08:59:02.002Z,73.53
2019-01-29T09:00:02.004Z,73.34
2019-01-29T09:01:01.999Z,71.64
2019-01-29T09:02:02.004Z,70.70
2019-01-29T09:03:02.051Z,70.23
2019-01-29T09:04:02.005Z,70.51
2019-01-29T09:05:02.007Z,71.64
2019-01-29T09:06:02.008Z,70.98
2019-01-29T09:07:02.010Z,70.42
2019-01-29T09:08:02.013Z,70.61
2019-01-29T09:09:02.009Z,70.89
2019-01-29T09:10:02.018Z,71.08
2019-01-29T09:11:02.015Z,70.98
2019-01-29T09:12:02.016Z,70.98
2019-01-29T09:13:02.019Z,69.95
2019-01-29T09:14:02.020Z,69.57
2019-01-29T09:15:02.027Z,69.95
2019-01-29T09:16:02.019Z,69.67
2019-01-29T09:17:02.022Z,69.19
2019-01-29T09:18:02.025Z,68.44
2019-01-29T09:19:02.027Z,68.82
2019-01-29T09:20:03.242Z,69.76
2019-01-29T09:21:02.031Z,70.07
2019-01-29T09:22:02.032Z,69.79
2019-01-29T09:23:02.109Z,69.79
2019-01-29T09:24:02.032Z,69.79
2019-01-29T09:25:02.034Z,68.38
2019-01-29T09:26:02.037Z,68.38
2019-01-29T09:27:02.049Z,67.62
2019-01-29T09:28:02.115Z,66.30
2019-01-29T09:29:02.042Z,66.87
2019-01-29T09:30:02.053Z,65.80
2019-01-29T09:31:02.047Z,66.58
2019-01-29T09:32:02.045Z,67.06
2019-01-29T09:33:02.053Z,66.11
2019-01-29T09:34:02.056Z,65.17
2019-01-29T09:35:02.053Z,64.61
2019-01-29T09:36:02.056Z,63.85
2019-01-29T09:37:02.059Z,64.61
2019-01-29T09:38:02.058Z,64.32
2019-01-29T09:39:02.060Z,64.51
2019-01-29T09:40:02.064Z,63.66
2019-01-29T09:41:02.064Z,62.72
2019-01-29T09:42:02.065Z,63.19
2019-01-29T09:43:02.066Z,62.25
2019-01-29T09:44:02.067Z,62.25
2019-01-29T09:45:02.077Z,62.53
2019-01-29T09:46:02.071Z,62.56
2019-01-29T09:47:02.078Z,61.99
2019-01-29T09:48:02.075Z,61.33
2019-01-29T09:49:02.082Z,60.77
2019-01-29T09:50:02.081Z,59.92
2019-01-29T09:51:02.083Z,60.36
2019-01-29T09:52:02.088Z,59.99
2019-01-29T09:53:02.091Z,61.30
2019-01-29T09:54:02.094Z,62.62
2019-01-29T09:55:02.098Z,62.47
2019-01-29T09:56:02.101Z,64.64
2019-01-29T09:57:02.100Z,65.01
2019-01-29T09:58:02.103Z,64.14
2019-01-29T09:59:02.111Z,62.53
2019-01-29T10:00:02.114Z,63.41
2019-01-29T10:01:02.112Z,63.60
2019-01-29T10:02:02.114Z,63.41
2019-01-29T10:03:02.119Z,63.79
2019-01-29T10:04:02.132Z,61.80
2019-01-29T10:05:02.125Z,60.02
2019-01-29T10:06:02.125Z,58.31
2019-01-29T10:07:02.132Z,58.79
2019-01-29T10:08:02.138Z,58.60
2019-01-29T10:09:02.134Z,59.73
2019-01-29T10:10:02.140Z,59.38
2019-01-29T10:11:02.140Z,58.53
2019-01-29T10:12:02.142Z,59.29
2019-01-29T10:13:02.147Z,60.80
2019-01-29T10:14:02.148Z,61.08
2019-01-29T10:15:02.152Z,60.05
2019-01-29T10:16:02.154Z,60.14
2019-01-29T10:17:02.161Z,59.48
2019-01-29T10:18:02.165Z,59.10
2019-01-29T10:19:02.165Z,59.57
2019-01-29T10:20:03.058Z,59.38
2019-01-29T10:21:02.173Z,60.33
2019-01-29T10:22:02.183Z,61.55
2019-01-29T10:23:02.181Z,60.80
2019-01-29T10:24:02.188Z,60.93
2019-01-29T10:25:02.195Z,59.89
2019-01-29T10:26:02.195Z,59.25
2019-01-29T10:27:02.205Z,57.53
2019-01-29T10:28:02.205Z,56.11
2019-01-29T10:29:02.210Z,55.63
2019-01-29T10:30:02.213Z,55.92
2019-01-29T10:31:02.224Z,55.73
2019-01-29T10:32:02.220Z,55.63
2019-01-29T10:33:02.228Z,56.23
2019-01-29T10:34:02.232Z,57.08
2019-01-29T10:35:02.235Z,57.05
2019-01-29T10:36:02.243Z,56.55
2019-01-29T10:37:02.245Z,57.12
2019-01-29T10:38:02.248Z,57.40
2019-01-29T10:39:02.258Z,58.53
2019-01-29T10:40:02.258Z,59.00
2019-01-29T10:41:02.264Z,60.14
2019-01-29T10:42:02.276Z,59.86
2019-01-29T10:43:02.276Z,60.05
2019-01-29T10:44:02.282Z,59.95
2019-01-29T10:45:02.285Z,61.08
2019-01-29T10:46:02.294Z,62.40
2019-01-29T10:47:02.300Z,63.16
2019-01-29T10:48:02.304Z,62.59
2019-01-29T10:49:02.308Z,62.21
2019-01-29T10:50:02.314Z,63.07
2019-01-29T10:51:02.320Z,62.97
2019-01-29T10:52:02.325Z,62.88
2019-01-29T10:53:02.328Z,64.01
2019-01-29T10:54:02.339Z,63.16
2019-01-29T10:55:02.346Z,63.45
2019-01-29T10:56:02.346Z,65.14
2019-01-29T10:57:02.351Z,66.28
2019-01-29T10:58:02.359Z,66.94
2019-01-29T10:59:02.362Z,65.71
2019-01-29T11:00:02.367Z,66.47
2019-01-29T11:01:02.376Z,69.17
2019-01-29T11:02:02.380Z,71.72
2019-01-29T11:03:02.384Z,71.72
2019-01-29T11:04:02.389Z,72.28
2019-01-29T11:05:02.397Z,73.13
2019-01-29T11:06:02.403Z,72.88
2019-01-29T11:07:02.405Z,71.47
2019-01-29T11:08:02.417Z,70.34
2019-01-29T11:09:02.487Z,70.77
2019-01-29T11:10:02.422Z,71.06
2019-01-29T11:11:02.427Z,71.47
2019-01-29T11:12:02.435Z,70.90
2019-01-29T11:13:02.440Z,67.69
2019-01-29T11:14:02.443Z,68.23
2019-01-29T11:15:02.449Z,67.60
2019-01-29T11:16:02.454Z,67.79
2019-01-29T11:17:02.460Z,68.63
2019-01-29T11:18:02.467Z,69.39
2019-01-29T11:19:03.471Z,67.63
2019-01-29T11:20:02.477Z,66.97
2019-01-29T11:21:02.501Z,66.59
2019-01-29T11:22:02.487Z,66.37
2019-01-29T11:23:02.492Z,67.69
2019-01-29T11:24:02.498Z,69.49
2019-01-29T11:25:02.507Z,69.81
2019-01-29T11:26:02.515Z,68.16
2019-01-29T11:27:02.514Z,67.13
2019-01-29T11:28:02.521Z,66.56
2019-01-29T11:29:02.530Z,67.69
2019-01-29T11:30:02.537Z,68.73
2019-01-29T11:31:02.539Z,69.11
2019-01-29T11:32:02.542Z,70.81
2019-01-29T11:33:02.550Z,70.05
2019-01-29T11:34:02.556Z,69.83
2019-01-29T11:35:02.559Z,69.01
2019-01-29T11:36:02.564Z,69.58
2019-01-29T11:37:02.571Z,71.75
2019-01-29T11:38:02.578Z,72.83
2019-01-29T11:39:02.582Z,73.68
2019-01-29T11:40:02.587Z,72.36
2019-01-29T11:41:02.594Z,72.39
2019-01-29T11:42:02.600Z,70.50
2019-01-29T11:43:02.606Z,69.46
2019-01-29T11:44:02.611Z,69.96
2019-01-29T11:45:02.621Z,71.75
2019-01-29T11:46:02.623Z,73.39
2019-01-29T11:47:02.627Z,70.84
2019-01-29T11:48:02.636Z,70.65
2019-01-29T11:49:02.865Z,71.41
2019-01-29T11:50:02.656Z,70.59
2019-01-29T11:51:02.653Z,69.62
2019-01-29T11:52:02.657Z,68.44
2019-01-29T11:53:02.664Z,70.15
2019-01-29T11:54:02.668Z,71.69
2019-01-29T11:55:02.680Z,72.64
2019-01-29T11:56:04.829Z,73.39
2019-01-29T11:57:02.688Z,71.16
2019-01-29T11:58:02.704Z,70.47
2019-01-29T11:59:02.703Z,68.67
2019-01-29T12:00:02.710Z,66.97
2019-01-29T12:01:04.580Z,66.75
2019-01-29T12:02:02.720Z,67.82
2019-01-29T12:03:02.742Z,67.63
2019-01-29T12:04:02.732Z,67.44
2019-01-29T12:05:02.738Z,67.60
2019-01-29T12:06:02.748Z,69.30
2019-01-29T12:07:02.755Z,69.30
2019-01-29T12:08:02.766Z,71.88
2019-01-29T12:09:02.764Z,72.73
2019-01-29T12:10:02.773Z,73.21
2019-01-29T12:11:02.779Z,71.22
2019-01-29T12:12:02.787Z,68.95
2019-01-29T12:13:02.794Z,62.31
2019-01-29T12:14:02.800Z,66.94
2019-01-29T12:15:02.801Z,69.96
2019-01-29T12:16:02.811Z,71.09
2019-01-29T12:17:02.817Z,72.55
2019-01-29T12:18:02.830Z,68.82
2019-01-29T12:19:02.827Z,65.05
2019-01-29T12:20:02.836Z,68.82
2019-01-29T12:21:02.842Z,70.90
2019-01-29T12:22:02.847Z,72.69
2019-01-29T12:23:02.856Z,72.92
2019-01-29T12:24:02.857Z,71.12
2019-01-29T12:25:02.866Z,66.75
2019-01-29T12:26:02.868Z,61.46
2019-01-29T12:27:02.879Z,69.11
2019-01-29T12:28:02.886Z,69.33
2019-01-29T12:29:02.889Z,66.12
2019-01-29T12:30:02.895Z,67.07
2019-01-29T12:31:02.903Z,61.90
2019-01-29T12:32:02.908Z,59.92
2019-01-29T12:33:02.911Z,58.18
2019-01-29T12:34:02.925Z,58.82
2019-01-29T12:35:02.925Z,65.90
2019-01-29T12:36:02.932Z,67.63
2019-01-29T12:37:02.943Z,66.03
2019-01-29T12:38:02.942Z,65.59
2019-01-29T12:39:02.952Z,63.10
2019-01-29T12:40:02.953Z,59.41
2019-01-29T12:41:02.963Z,58.37
2019-01-29T12:42:02.968Z,62.34
2019-01-29T12:43:02.980Z,61.30
2019-01-29T12:44:02.989Z,61.55
2019-01-29T12:45:02.986Z,62.59
2019-01-29T12:46:02.991Z,60.99
2019-01-29T12:47:03.000Z,62.02
2019-01-29T12:48:03.085Z,63.82
2019-01-29T12:49:03.012Z,64.29
2019-01-29T12:50:03.020Z,64.23
2019-01-29T12:51:03.027Z,61.40
2019-01-29T12:52:03.028Z,57.87